Jordan, Wisconsin
Current Conditions -  °F | °C
As of 5:55 AM on Thursday 29 Jan 2015 (Local Time) from KSTE Reporting Station
Haze Haze  
Wind Chill: 19°   Ceiling: 600
Heat Index: 26°   Visibility: 4mi
Dew Point: 24°   Wind: 6mph
Humidity: 93%   Direction: 310°NW
Pressure: 29.82"   Gusts: NA
Location:  44.5531°N, 89.5186°W
Report Text: KSTE 291155Z AUTO 31005KT 4SM BR OVC006 M03/M04 A2982 RMK AO2 T10351045 11035 21043
Loading
Personal Weather Stations






























Interactive Weather Map New forecast layout! Learn more

10-Day Weather Forecast

Advertisements
Track Severe Weather on mobile